Time;durP1;ratioP1;P1;durP2;ratioP2;P2;SDS_P1;SDS_P2;PMS_P1;PMS_P2;Temp;Humidity;BMP_temperature;BMP_pressure;BME280_temperature;BME280_humidity;BME280_pressure;Samples;Min_cycle;Max_cycle;Signal;HPM_P1;HPM_P2
2021/12/28 00:00:59;;;;;;;17.52;13.02;;;6.30;87.70;;;;;;6100626;23;92448;-71
2021/12/28 00:03:26;;;;;;;20.80;12.77;;;6.30;88.10;;;;;;6124335;23;92420;-71
2021/12/28 00:05:53;;;;;;;19.55;13.80;;;6.30;88.00;;;;;;6122905;23;94790;-71
2021/12/28 00:08:20;;;;;;;20.85;14.85;;;6.30;88.00;;;;;;6123759;23;105809;-70
2021/12/28 00:10:48;;;;;;;17.67;14.10;;;6.30;87.90;;;;;;6124180;23;94828;-71
2021/12/28 00:13:16;;;;;;;17.88;13.70;;;6.40;87.90;;;;;;6122612;23;92419;-71
2021/12/28 00:18:37;;;;;;;23.33;13.93;;;6.40;88.00;;;;;;6058977;23;92972;-71
2021/12/28 00:21:06;;;;;;;20.45;15.45;;;6.40;88.00;;;;;;6124234;23;93548;-71
2021/12/28 00:23:39;;;;;;;20.65;14.27;;;6.50;87.90;;;;;;6124678;23;91752;-71
2021/12/28 00:26:13;;;;;;;21.13;14.70;;;6.40;88.00;;;;;;6124390;23;92774;-71
2021/12/28 00:28:42;;;;;;;;;;;6.50;88.00;;;;;;6124454;23;93146;-77
2021/12/28 00:31:11;;;;;;;20.10;14.82;;;6.40;88.40;;;;;;6125296;23;94902;-71
2021/12/28 00:33:38;;;;;;;21.00;15.60;;;6.40;88.60;;;;;;6097725;23;92469;-77
2021/12/28 00:36:05;;;;;;;20.70;14.05;;;6.50;89.00;;;;;;6124157;23;93123;-77
2021/12/28 00:38:33;;;;;;;16.55;12.98;;;6.50;89.10;;;;;;6123559;23;92944;-77
2021/12/28 00:41:03;;;;;;;21.10;14.00;;;6.60;89.00;;;;;;6123757;23;92911;-77
2021/12/28 00:43:31;;;;;;;22.65;16.00;;;6.60;89.30;;;;;;6121447;23;92447;-77
2021/12/28 00:45:59;;;;;;;26.35;16.85;;;6.60;89.60;;;;;;6123792;23;92425;-77
2021/12/28 00:48:26;;;;;;;24.00;16.15;;;6.60;90.00;;;;;;6122574;23;92243;-77
2021/12/28 00:50:53;;;;;;;26.55;16.88;;;6.60;90.00;;;;;;6121772;23;95020;-77
2021/12/28 00:53:20;;;;;;;30.80;17.65;;;6.60;90.10;;;;;;6121704;23;103498;-75
2021/12/28 00:55:47;;;;;;;25.73;18.13;;;6.70;89.80;;;;;;6121703;23;94851;-69
2021/12/28 00:58:16;;;;;;;26.63;18.48;;;6.70;89.50;;;;;;6097388;23;95489;-69
2021/12/28 01:00:44;;;;;;;23.90;15.95;;;6.70;89.30;;;;;;6123341;23;92786;-71
2021/12/28 01:03:12;;;;;;;21.60;14.65;;;6.70;89.70;;;;;;6123669;23;94431;-70
2021/12/28 01:05:40;;;;;;;25.90;15.57;;;6.70;90.00;;;;;;6123679;23;92485;-71
2021/12/28 01:08:08;;;;;;;22.48;16.10;;;6.70;90.00;;;;;;6123744;23;93077;-71
2021/12/28 01:10:55;;;;;;;24.70;16.30;;;6.70;89.80;;;;;;6123584;23;93383;-71
2021/12/28 01:13:22;;;;;;;22.17;15.18;;;6.80;89.70;;;;;;6097340;23;93824;-71
2021/12/28 01:15:50;;;;;;;24.65;16.38;;;6.80;90.00;;;;;;6123397;23;92413;-70
2021/12/28 01:18:18;;;;;;;26.60;17.30;;;6.90;90.00;;;;;;6123535;23;92983;-70
2021/12/28 01:20:45;;;;;;;25.58;16.42;;;6.90;90.30;;;;;;6121200;23;106537;-71
2021/12/28 01:23:13;;;;;;;24.52;16.30;;;6.90;90.30;;;;;;6123701;23;92406;-71
2021/12/28 01:25:40;;;;;;;21.23;15.50;;;6.90;90.30;;;;;;6122124;23;92549;-71
2021/12/28 01:28:08;;;;;;;25.13;16.15;;;6.90;90.30;;;;;;6123527;23;93028;-71
2021/12/28 01:30:36;;;;;;;28.17;17.83;;;6.90;90.30;;;;;;6120977;23;100061;-70
2021/12/28 01:33:03;;;;;;;24.85;17.40;;;7.00;90.40;;;;;;6123873;23;92458;-71
2021/12/28 01:35:31;;;;;;;26.55;16.85;;;7.00;90.40;;;;;;6097382;23;92483;-71
2021/12/28 01:37:58;;;;;;;29.92;19.02;;;7.00;90.30;;;;;;6123161;23;92272;-71
2021/12/28 01:40:30;;;;;;;28.35;17.33;;;7.10;90.30;;;;;;6123414;23;92345;-71
2021/12/28 01:43:06;;;;;;;33.40;19.90;;;7.20;90.20;;;;;;6123059;23;92420;-71
2021/12/28 01:45:34;;;;;;;36.60;19.45;;;7.20;90.20;;;;;;6122047;23;94941;-71
2021/12/28 01:48:02;;;;;;;31.13;18.80;;;7.20;90.20;;;;;;6123298;23;95402;-71
2021/12/28 01:50:29;;;;;;;33.90;19.67;;;7.20;90.10;;;;;;6097253;23;92839;-71
2021/12/28 01:52:56;;;;;;;36.42;21.98;;;7.20;90.20;;;;;;6123131;23;92458;-71
2021/12/28 01:55:23;;;;;;;24.02;14.85;;;7.20;90.20;;;;;;6123511;23;92375;-71
2021/12/28 01:57:50;;;;;;;28.98;16.52;;;7.20;90.30;;;;;;6123190;23;92924;-71
2021/12/28 02:00:18;;;;;;;23.98;16.38;;;7.20;90.40;;;;;;6123299;23;92894;-71
2021/12/28 02:02:45;;;;;;;35.60;21.58;;;7.20;90.30;;;;;;6097196;23;94216;-71
2021/12/28 02:05:12;;;;;;;35.03;21.40;;;7.30;90.20;;;;;;6121370;23;92963;-71
2021/12/28 02:07:39;;;;;;;34.45;20.15;;;7.30;90.30;;;;;;6096140;23;93059;-71
2021/12/28 02:10:07;;;;;;;39.00;21.00;;;7.30;90.40;;;;;;6121658;23;94684;-71
2021/12/28 02:12:34;;;;;;;34.58;21.55;;;7.30;90.10;;;;;;6123493;23;93033;-71
2021/12/28 02:15:06;;;;;;;33.63;18.80;;;7.40;90.10;;;;;;6072126;23;92547;-71
2021/12/28 02:17:34;;;;;;;35.08;18.88;;;7.40;90.00;;;;;;6097595;23;93003;-71
2021/12/28 02:20:08;;;;;;;37.60;20.88;;;7.40;90.20;;;;;;6122764;23;92714;-71
2021/12/28 02:22:35;;;;;;;30.85;17.90;;;7.40;90.20;;;;;;6121535;23;92976;-71
2021/12/28 02:25:03;;;;;;;41.05;22.00;;;7.40;90.30;;;;;;6122783;23;92504;-71
2021/12/28 02:27:30;;;;;;;35.70;20.70;;;7.40;90.30;;;;;;6121752;23;91750;-71
2021/12/28 02:29:57;;;;;;;42.80;21.65;;;7.40;90.20;;;;;;6122769;23;92634;-71
2021/12/28 02:32:29;;;;;;;38.03;21.10;;;7.40;90.20;;;;;;6123337;23;92357;-71
2021/12/28 02:34:57;;;;;;;34.75;21.00;;;7.40;90.20;;;;;;6119762;23;94819;-71
2021/12/28 02:37:25;;;;;;;41.60;20.95;;;7.40;90.20;;;;;;6123021;23;92997;-71
2021/12/28 02:39:52;;;;;;;41.58;21.10;;;7.40;90.20;;;;;;6120952;23;92764;-71
2021/12/28 02:42:22;;;;;;;44.63;23.17;;;7.50;90.20;;;;;;6123096;23;92475;-71
2021/12/28 02:45:02;;;;;;;42.90;22.08;;;7.50;90.10;;;;;;6120505;23;92536;-71
2021/12/28 02:47:32;;;;;;;39.72;21.95;;;7.60;90.10;;;;;;6123073;23;92958;-71
2021/12/28 02:49:59;;;;;;;45.42;22.92;;;7.50;90.10;;;;;;6122509;23;92740;-69
2021/12/28 02:52:26;;;;;;;36.53;19.85;;;7.60;90.10;;;;;;6123292;23;91640;-69
2021/12/28 02:54:53;;;;;;;36.63;21.60;;;7.60;90.10;;;;;;6122875;23;92474;-69
2021/12/28 02:57:20;;;;;;;41.22;22.73;;;7.60;90.10;;;;;;6122364;23;107530;-69
2021/12/28 02:59:50;;;;;;;37.50;22.40;;;7.60;90.10;;;;;;6121021;23;94700;-69
2021/12/28 03:02:18;;;;;;;38.53;21.23;;;7.60;90.10;;;;;;6123006;23;92535;-71
2021/12/28 03:04:46;;;;;;;39.70;21.50;;;7.70;90.10;;;;;;6122887;23;92807;-71
2021/12/28 03:07:13;;;;;;;38.45;22.70;;;7.70;90.10;;;;;;6096278;23;93008;-71
2021/12/28 03:09:40;;;;;;;34.35;20.70;;;7.70;90.10;;;;;;6096597;23;92911;-71
2021/12/28 03:12:09;;;;;;;35.47;21.42;;;7.70;90.10;;;;;;6120586;23;92542;-71
2021/12/28 03:14:37;;;;;;;41.08;23.30;;;7.70;90.00;;;;;;6123030;23;92377;-71
2021/12/28 03:17:05;;;;;;;28.77;18.80;;;7.80;90.00;;;;;;6123000;23;91718;-71
2021/12/28 03:19:34;;;;;;;32.53;19.80;;;7.70;90.10;;;;;;6124136;23;92444;-71
2021/12/28 03:22:02;;;;;;;34.03;20.80;;;7.70;90.00;;;;;;6123981;23;92534;-71
2021/12/28 03:24:29;;;;;;;35.10;21.90;;;7.70;90.10;;;;;;6122154;23;94879;-71
2021/12/28 03:26:56;;;;;;;36.75;20.95;;;7.70;90.00;;;;;;6097603;23;93242;-71
2021/12/28 03:29:23;;;;;;;43.22;24.33;;;7.70;90.10;;;;;;6123822;23;92844;-71
2021/12/28 03:31:50;;;;;;;35.10;20.90;;;7.80;90.00;;;;;;6124124;23;92410;-71
2021/12/28 03:34:17;;;;;;;42.50;23.55;;;7.80;89.90;;;;;;6097119;23;111553;-71
2021/12/28 03:36:44;;;;;;;34.10;21.17;;;7.80;89.70;;;;;;6122671;23;92440;-71
2021/12/28 03:39:11;;;;;;;31.92;20.35;;;7.80;89.70;;;;;;6097306;23;95682;-71
2021/12/28 03:41:39;;;;;;;37.50;20.98;;;7.80;90.00;;;;;;6098105;23;91628;-71
2021/12/28 03:44:06;;;;;;;39.75;22.83;;;7.80;90.10;;;;;;6122907;23;93090;-71
2021/12/28 03:46:34;;;;;;;40.17;23.23;;;7.80;90.00;;;;;;6124501;23;93000;-71
2021/12/28 03:49:01;;;;;;;42.30;22.83;;;7.80;89.90;;;;;;6122412;23;94863;-71
2021/12/28 03:51:28;;;;;;;35.92;20.65;;;7.90;90.10;;;;;;6098260;23;92582;-71
2021/12/28 03:53:55;;;;;;;43.63;23.98;;;7.90;90.00;;;;;;6124196;23;92370;-71
2021/12/28 03:56:22;;;;;;;43.10;22.38;;;7.90;89.90;;;;;;6122211;23;94142;-71
2021/12/28 03:58:50;;;;;;;44.10;22.55;;;7.90;90.00;;;;;;6097463;23;103299;-71
2021/12/28 04:01:22;;;;;;;49.28;24.20;;;7.90;90.10;;;;;;6124050;23;92523;-71
2021/12/28 04:03:50;;;;;;;63.72;25.48;;;7.90;90.10;;;;;;6124501;23;92323;-71
2021/12/28 04:06:19;;;;;;;69.22;27.90;;;7.90;90.10;;;;;;6124067;23;94486;-71
2021/12/28 04:08:47;;;;;;;75.80;28.10;;;7.90;90.10;;;;;;6124162;23;92361;-71
2021/12/28 04:13:48;;;;;;;92.68;28.00;;;7.90;90.20;;;;;;6096461;23;95415;-71
2021/12/28 04:16:17;;;;;;;189.50;35.50;;;7.90;90.20;;;;;;6122212;23;93071;-71
2021/12/28 04:18:45;;;;;;;176.75;31.50;;;7.90;90.40;;;;;;6123979;23;92950;-71
2021/12/28 04:21:12;;;;;;;126.78;28.77;;;7.90;90.50;;;;;;6097826;23;92349;-71
2021/12/28 04:23:40;;;;;;;320.40;39.85;;;7.80;90.50;;;;;;6124346;23;92362;-71
2021/12/28 04:26:07;;;;;;;146.55;29.13;;;7.80;90.50;;;;;;6123915;23;92965;-71
2021/12/28 04:28:34;;;;;;;126.13;29.23;;;7.80;90.50;;;;;;6123454;23;92781;-71
2021/12/28 04:31:01;;;;;;;123.20;25.85;;;7.70;90.50;;;;;;6123956;23;91567;-71
2021/12/28 04:33:28;;;;;;;78.80;22.35;;;7.70;90.40;;;;;;6124319;23;92691;-71
2021/12/28 04:35:55;;;;;;;116.85;26.52;;;7.70;90.40;;;;;;6122881;23;117437;-71
2021/12/28 04:38:23;;;;;;;156.25;30.48;;;7.70;90.40;;;;;;6119864;23;94894;-71
2021/12/28 04:40:49;;;;;;;72.90;22.67;;;7.70;90.30;;;;;;6124089;23;92441;-71
2021/12/28 04:43:16;;;;;;;189.68;31.38;;;7.70;90.20;;;;;;6123787;23;92665;-71
2021/12/28 04:45:43;;;;;;;219.77;32.83;;;7.60;90.40;;;;;;6097047;23;93045;-72
2021/12/28 04:48:10;;;;;;;114.05;27.55;;;7.60;90.50;;;;;;6123429;23;92702;-71
2021/12/28 04:50:39;;;;;;;266.52;34.47;;;7.60;90.50;;;;;;6121911;23;92513;-71
2021/12/28 04:53:10;;;;;;;175.23;31.83;;;7.50;90.60;;;;;;6123584;23;92375;-71
2021/12/28 04:55:40;;;;;;;178.23;32.20;;;7.60;90.60;;;;;;6124295;23;92116;-71
2021/12/28 04:58:07;;;;;;;136.27;30.77;;;7.60;90.50;;;;;;6123498;23;94988;-71
2021/12/28 05:00:35;;;;;;;63.58;22.17;;;7.60;90.60;;;;;;6123851;23;92323;-71
2021/12/28 05:03:03;;;;;;;151.18;30.13;;;7.50;90.70;;;;;;6122752;23;95270;-71
2021/12/28 05:05:31;;;;;;;116.13;27.88;;;7.50;90.80;;;;;;6123592;23;97606;-71
2021/12/28 05:07:58;;;;;;;154.60;31.05;;;7.50;90.50;;;;;;6123611;23;92944;-71
2021/12/28 05:10:26;;;;;;;164.50;33.92;;;7.60;90.60;;;;;;6123518;23;92345;-71
2021/12/28 05:12:53;;;;;;;170.02;30.02;;;7.60;90.30;;;;;;6096424;23;104268;-71
2021/12/28 05:15:19;;;;;;;133.82;31.73;;;7.50;90.20;;;;;;6121232;23;100724;-69
2021/12/28 05:17:46;;;;;;;58.05;22.98;;;7.50;90.20;;;;;;6123535;23;92895;-69
2021/12/28 05:20:13;;;;;;;60.65;23.23;;;7.50;90.30;;;;;;6123786;23;91609;-71
2021/12/28 05:22:41;;;;;;;100.65;28.98;;;7.50;90.40;;;;;;6123770;23;92350;-69
2021/12/28 05:25:08;;;;;;;94.57;27.00;;;7.50;90.30;;;;;;6123317;23;92880;-69
2021/12/28 05:27:36;;;;;;;57.67;23.15;;;7.50;90.20;;;;;;6122098;23;95309;-69
2021/12/28 05:30:06;;;;;;;79.45;26.48;;;7.50;90.10;;;;;;6123641;23;92345;-69
2021/12/28 05:32:34;;;;;;;62.95;23.30;;;7.50;90.10;;;;;;6124016;23;92385;-69
2021/12/28 05:35:02;;;;;;;75.65;26.40;;;7.50;90.10;;;;;;6123442;23;94825;-69
2021/12/28 05:37:29;;;;;;;79.88;26.27;;;7.50;90.00;;;;;;6121066;23;94053;-69
2021/12/28 05:39:56;;;;;;;59.88;24.92;;;7.50;90.00;;;;;;6121278;23;104408;-69
2021/12/28 05:42:23;;;;;;;51.00;21.80;;;7.50;90.30;;;;;;6096915;23;92552;-69
2021/12/28 05:44:50;;;;;;;51.40;20.10;;;7.50;90.00;;;;;;6117057;23;92334;-68
2021/12/28 05:47:19;;;;;;;75.03;25.33;;;7.50;90.10;;;;;;6116454;23;93422;-69
2021/12/28 05:49:46;;;;;;;64.65;24.48;;;7.50;90.10;;;;;;6093893;23;92360;-69
2021/12/28 05:52:13;;;;;;;66.47;25.10;;;7.50;90.00;;;;;;6090379;23;94943;-69
2021/12/28 05:54:40;;;;;;;57.33;21.75;;;7.50;90.00;;;;;;6043551;23;95732;-69
2021/12/28 05:57:08;;;;;;;62.92;24.08;;;7.60;89.90;;;;;;6093581;23;92899;-69
2021/12/28 05:59:36;;;;;;;64.93;25.10;;;7.50;89.90;;;;;;6092196;23;92517;-68
2021/12/28 06:02:04;;;;;;;60.80;24.85;;;7.60;89.80;;;;;;6093875;23;92409;-69
2021/12/28 06:04:31;;;;;;;67.63;23.08;;;7.60;89.80;;;;;;6091412;23;96207;-69
2021/12/28 06:06:58;;;;;;;45.25;20.92;;;7.50;89.60;;;;;;6093334;23;92706;-69
2021/12/28 06:09:25;;;;;;;60.35;25.13;;;7.60;89.70;;;;;;6093735;23;96268;-69
2021/12/28 06:11:52;;;;;;;64.57;24.35;;;7.50;89.80;;;;;;6094232;23;92460;-68
2021/12/28 06:14:19;;;;;;;58.65;26.25;;;7.50;89.70;;;;;;6092236;23;93172;-69
2021/12/28 06:16:46;;;;;;;54.17;25.92;;;7.50;89.70;;;;;;6092052;23;94879;-71
2021/12/28 06:19:13;;;;;;;61.42;26.27;;;7.40;89.80;;;;;;6093579;23;92389;-69
2021/12/28 06:21:41;;;;;;;57.72;23.27;;;7.50;90.00;;;;;;6092189;23;92386;-69
2021/12/28 06:24:08;;;;;;;56.60;24.67;;;7.40;89.80;;;;;;6116570;23;93093;-69
2021/12/28 06:26:36;;;;;;;55.17;25.20;;;7.50;89.80;;;;;;6093158;23;92895;-69
2021/12/28 06:29:06;;;;;;;51.88;23.13;;;7.50;89.80;;;;;;6093773;23;92271;-69
2021/12/28 06:31:34;;;;;;;53.85;22.25;;;7.40;89.70;;;;;;6093558;23;92454;-69
2021/12/28 06:34:03;;;;;;;46.85;22.77;;;7.40;89.80;;;;;;6092242;23;93707;-69
2021/12/28 06:36:30;;;;;;;43.58;21.15;;;7.40;89.90;;;;;;6091323;23;94927;-69
2021/12/28 06:38:57;;;;;;;31.67;18.02;;;7.40;89.80;;;;;;6092369;23;92687;-69
2021/12/28 06:41:24;;;;;;;33.83;17.23;;;7.40;90.00;;;;;;6114398;23;103803;-72
2021/12/28 06:43:51;;;;;;;31.35;17.00;;;7.30;90.10;;;;;;6099372;23;93125;-72
2021/12/28 06:46:18;;;;;;;39.85;19.80;;;7.40;90.10;;;;;;6096522;23;99705;-72
2021/12/28 06:48:46;;;;;;;36.55;18.80;;;7.40;90.00;;;;;;6123301;23;92372;-71
2021/12/28 06:51:13;;;;;;;28.25;17.27;;;7.40;90.00;;;;;;6096934;23;92484;-71
2021/12/28 06:53:40;;;;;;;26.65;16.60;;;7.40;90.00;;;;;;6072601;23;95868;-72
2021/12/28 06:56:08;;;;;;;34.03;16.48;;;7.40;90.00;;;;;;6124424;23;92866;-71
2021/12/28 06:58:35;;;;;;;24.77;14.60;;;7.40;89.90;;;;;;6124839;23;91606;-69
2021/12/28 07:01:03;;;;;;;22.00;13.30;;;7.40;89.90;;;;;;6124569;23;92308;-69
2021/12/28 07:03:30;;;;;;;20.80;12.30;;;7.40;90.40;;;;;;6123850;23;100998;-69
2021/12/28 07:05:57;;;;;;;24.30;13.85;;;7.50;90.00;;;;;;6122980;23;94858;-69
2021/12/28 07:08:25;;;;;;;20.60;12.80;;;7.50;90.00;;;;;;6098127;23;92420;-69
2021/12/28 07:10:52;;;;;;;23.50;14.52;;;7.50;89.80;;;;;;6124953;23;92402;-69
2021/12/28 07:13:18;;;;;;;22.27;13.35;;;7.50;89.60;;;;;;6122814;23;101762;-69
2021/12/28 07:15:46;;;;;;;18.58;11.65;;;7.50;89.50;;;;;;6098011;23;92805;-69
2021/12/28 07:18:13;;;;;;;21.38;12.90;;;7.50;89.40;;;;;;6124927;23;92398;-69
2021/12/28 07:20:39;;;;;;;19.80;11.90;;;7.60;89.70;;;;;;6124390;23;92386;-69
2021/12/28 07:23:06;;;;;;;18.25;11.63;;;7.60;89.50;;;;;;6124912;23;92243;-70
2021/12/28 07:25:33;;;;;;;22.98;12.98;;;7.60;89.10;;;;;;6124012;23;92409;-69
2021/12/28 07:28:00;;;;;;;18.92;11.93;;;7.60;88.90;;;;;;6098220;23;92437;-69
2021/12/28 07:30:27;;;;;;;19.45;10.48;;;7.60;89.00;;;;;;6123301;23;94788;-69
2021/12/28 07:32:54;;;;;;;14.73;10.75;;;7.70;89.00;;;;;;6124547;23;93049;-69
2021/12/28 07:35:22;;;;;;;18.35;11.68;;;7.70;88.80;;;;;;6097786;23;92772;-69
2021/12/28 07:37:49;;;;;;;20.13;14.32;;;7.70;88.50;;;;;;6123331;23;109512;-70
2021/12/28 07:40:16;;;;;;;24.45;19.13;;;7.70;88.60;;;;;;6073904;23;92445;-69
2021/12/28 07:42:43;;;;;;;20.90;11.73;;;7.70;88.60;;;;;;6123794;23;93102;-70
2021/12/28 07:45:12;;;;;;;28.27;23.92;;;7.70;88.60;;;;;;6097511;23;92849;-70
2021/12/28 07:47:41;;;;;;;81.95;58.40;;;7.80;88.90;;;;;;6124248;23;93562;-69
2021/12/28 07:50:11;;;;;;;31.40;27.75;;;7.80;88.80;;;;;;6122319;23;92518;-70
2021/12/28 07:52:38;;;;;;;44.63;38.75;;;7.80;88.80;;;;;;6123962;23;94359;-70
2021/12/28 07:55:07;;;;;;;19.17;12.77;;;7.80;89.10;;;;;;6096426;23;94853;-70
2021/12/28 07:57:34;;;;;;;22.85;17.33;;;7.80;89.00;;;;;;6098084;23;92459;-70
2021/12/28 08:00:09;;;;;;;17.42;13.90;;;7.80;89.00;;;;;;6073488;23;92473;-70
2021/12/28 08:02:39;;;;;;;9.52;7.05;;;7.80;89.40;;;;;;6124478;23;92951;-70
2021/12/28 08:05:07;;;;;;;15.02;7.85;;;7.80;89.00;;;;;;6124669;23;92579;-70
2021/12/28 08:07:34;;;;;;;17.92;7.53;;;7.90;89.30;;;;;;6147693;22;92444;-75
2021/12/28 08:10:01;;;;;;;13.35;8.20;;;7.90;88.80;;;;;;6122810;23;92395;-75
2021/12/28 08:12:28;;;;;;;10.02;6.55;;;8.00;88.70;;;;;;6125103;23;92268;-75
2021/12/28 08:14:55;;;;;;;9.55;6.60;;;8.00;88.80;;;;;;6122506;23;94845;-75
2021/12/28 08:17:22;;;;;;;12.30;7.72;;;8.10;88.30;;;;;;6123190;23;92472;-75
2021/12/28 08:19:49;;;;;;;10.02;6.68;;;8.10;88.20;;;;;;6096413;23;94845;-75
2021/12/28 08:22:16;;;;;;;13.90;8.68;;;8.10;88.40;;;;;;6122649;23;94185;-75
2021/12/28 08:24:43;;;;;;;14.52;6.95;;;8.20;87.90;;;;;;6073688;23;92682;-75
2021/12/28 08:27:10;;;;;;;16.08;8.50;;;8.20;87.90;;;;;;6124766;23;92409;-75
2021/12/28 08:29:37;;;;;;;13.43;8.05;;;8.30;87.70;;;;;;6124698;23;92499;-75
2021/12/28 08:32:07;;;;;;;15.85;8.13;;;8.30;87.50;;;;;;6124505;23;93143;-75
2021/12/28 08:34:34;;;;;;;12.73;6.43;;;8.30;87.40;;;;;;6097686;23;109888;-75
2021/12/28 08:37:01;;;;;;;17.00;9.50;;;8.30;87.30;;;;;;6125338;23;91700;-75
2021/12/28 08:39:28;;;;;;;69.75;42.80;;;8.40;87.20;;;;;;6124711;23;92483;-75
2021/12/28 08:41:55;;;;;;;53.47;33.88;;;8.30;87.20;;;;;;6123822;23;93470;-75
2021/12/28 08:44:22;;;;;;;14.32;10.13;;;8.30;87.30;;;;;;6122149;23;94700;-75
2021/12/28 08:46:49;;;;;;;17.20;10.10;;;8.30;87.10;;;;;;6123365;23;92449;-75
2021/12/28 08:49:16;;;;;;;15.23;10.38;;;8.30;87.50;;;;;;6122320;23;92736;-75
2021/12/28 08:51:43;;;;;;;20.23;12.10;;;8.40;87.20;;;;;;6097254;23;93520;-75
2021/12/28 08:54:10;;;;;;;19.23;12.75;;;8.40;87.00;;;;;;6097485;23;92944;-75
2021/12/28 08:56:37;;;;;;;16.73;13.55;;;8.40;87.30;;;;;;6121993;23;92377;-75
2021/12/28 08:59:04;;;;;;;15.93;9.25;;;8.40;87.50;;;;;;6073360;23;92429;-75
2021/12/28 09:01:31;;;;;;;22.45;15.55;;;8.50;87.30;;;;;;6098231;23;100881;-75
2021/12/28 09:03:58;;;;;;;22.05;10.40;;;8.50;87.20;;;;;;6123550;23;92504;-75
2021/12/28 09:06:25;;;;;;;19.95;12.77;;;8.50;87.50;;;;;;6123856;23;92337;-75
2021/12/28 09:08:52;;;;;;;16.17;8.60;;;8.40;87.80;;;;;;6122135;23;94834;-76
2021/12/28 09:11:21;;;;;;;14.40;6.45;;;8.50;88.00;;;;;;6124673;23;93039;-75
2021/12/28 09:13:48;;;;;;;11.70;5.28;;;8.40;87.30;;;;;;6123974;23;92906;-76
2021/12/28 09:16:15;;;;;;;9.73;5.40;;;8.50;87.30;;;;;;6124545;23;92958;-76
2021/12/28 09:18:42;;;;;;;15.95;7.90;;;8.50;87.50;;;;;;6122438;23;92756;-76
2021/12/28 09:21:09;;;;;;;15.10;7.60;;;8.50;86.90;;;;;;6122581;23;93154;-75
2021/12/28 09:23:38;;;;;;;20.95;12.15;;;8.50;87.10;;;;;;6124024;23;92869;-75
2021/12/28 09:26:25;;;;;;;14.68;6.93;;;8.50;87.20;;;;;;6083218;23;91643;-75
2021/12/28 09:28:52;;;;;;;13.48;8.32;;;8.50;86.60;;;;;;6124070;23;92408;-75
2021/12/28 09:31:19;;;;;;;16.13;8.98;;;8.50;86.80;;;;;;6124194;23;93009;-75
2021/12/28 09:33:47;;;;;;;12.02;6.18;;;8.60;86.40;;;;;;6121104;23;95337;-75
2021/12/28 09:36:16;;;;;;;18.70;7.82;;;8.70;86.60;;;;;;6124567;23;92461;-75
2021/12/28 09:38:44;;;;;;;12.68;6.18;;;8.70;86.10;;;;;;6124567;23;93068;-76
2021/12/28 09:41:13;;;;;;;13.25;5.22;;;8.80;86.20;;;;;;6147571;22;95044;-76
2021/12/28 09:43:41;;;;;;;10.52;5.90;;;8.80;85.50;;;;;;6124040;23;92794;-75
2021/12/28 09:46:09;;;;;;;18.48;7.80;;;8.90;85.40;;;;;;6098430;23;92298;-76
2021/12/28 09:48:37;;;;;;;13.85;4.95;;;8.90;85.30;;;;;;6124402;23;92783;-76
2021/12/28 09:51:06;;;;;;;9.45;4.40;;;9.00;85.40;;;;;;6124414;23;92272;-76
2021/12/28 09:53:35;;;;;;;13.93;6.55;;;9.10;85.70;;;;;;6124116;23;92301;-76
2021/12/28 09:56:04;;;;;;;12.30;5.35;;;9.10;85.00;;;;;;6123794;23;92376;-76
2021/12/28 09:58:37;;;;;;;13.35;5.30;;;9.20;84.80;;;;;;6146013;22;94825;-76
2021/12/28 10:01:06;;;;;;;11.98;5.35;;;9.30;84.30;;;;;;6123802;23;92380;-75
2021/12/28 10:03:34;;;;;;;12.32;5.25;;;9.40;83.90;;;;;;6097675;23;92789;-76
2021/12/28 10:06:18;;;;;;;16.98;5.65;;;9.40;83.80;;;;;;6073309;23;92915;-76
2021/12/28 10:08:45;;;;;;;9.63;5.20;;;9.50;83.50;;;;;;6147340;22;92452;-76
2021/12/28 10:11:12;;;;;;;15.82;6.68;;;9.50;83.50;;;;;;6096837;23;94201;-76
2021/12/28 10:13:39;;;;;;;13.15;6.47;;;9.50;84.20;;;;;;6096739;23;108104;-76
2021/12/28 10:16:06;;;;;;;16.17;6.97;;;9.50;83.70;;;;;;6124505;23;91626;-76
2021/12/28 10:18:33;;;;;;;13.77;6.05;;;9.50;83.60;;;;;;6098072;23;92411;-76
2021/12/28 10:21:03;;;;;;;15.43;6.43;;;9.50;83.30;;;;;;6123460;23;93058;-76
2021/12/28 10:23:33;;;;;;;11.77;4.50;;;9.60;83.50;;;;;;6122338;23;94731;-76
2021/12/28 10:26:05;;;;;;;15.35;5.28;;;9.60;83.70;;;;;;6124076;23;92386;-76
2021/12/28 10:28:37;;;;;;;14.75;5.65;;;9.60;83.60;;;;;;6123161;23;92394;-76
2021/12/28 10:31:17;;;;;;;10.45;4.90;;;9.70;83.80;;;;;;6148083;22;92984;-76
2021/12/28 10:33:44;;;;;;;13.55;5.95;;;9.70;83.60;;;;;;6125119;23;93239;-75
2021/12/28 10:36:14;;;;;;;11.48;5.38;;;9.70;83.50;;;;;;6124914;23;92844;-76
2021/12/28 10:38:50;;;;;;;11.43;4.53;;;9.80;83.30;;;;;;6125068;23;92380;-77
2021/12/28 10:41:21;;;;;;;8.77;4.90;;;9.80;83.00;;;;;;6098450;23;94948;-76
2021/12/28 10:43:54;;;;;;;14.15;6.90;;;9.70;83.00;;;;;;6123341;23;92893;-76
2021/12/28 10:46:24;;;;;;;13.63;8.57;;;9.80;83.30;;;;;;6125356;23;92453;-76
2021/12/28 10:48:55;;;;;;;14.77;6.40;;;9.80;83.70;;;;;;6123638;23;94728;-76
2021/12/28 10:51:31;;;;;;;18.17;13.18;;;9.90;83.30;;;;;;6125136;23;93193;-76
2021/12/28 10:54:12;;;;;;;18.30;13.68;;;9.90;83.30;;;;;;6097454;23;95607;-76
2021/12/28 10:56:47;;;;;;;20.20;15.77;;;9.80;83.60;;;;;;6124332;23;92284;-76
2021/12/28 10:59:24;;;;;;;13.98;9.13;;;9.90;84.40;;;;;;6122591;23;92358;-76
2021/12/28 11:01:53;;;;;;;12.90;8.55;;;9.90;84.60;;;;;;6125636;23;92911;-77
2021/12/28 11:04:20;;;;;;;31.67;18.83;;;9.80;85.00;;;;;;6124937;23;92810;-76
2021/12/28 11:06:52;;;;;;;18.23;9.82;;;9.80;85.50;;;;;;6125139;23;91594;-71
2021/12/28 11:09:26;;;;;;;21.02;8.52;;;9.90;86.40;;;;;;6125022;23;92496;-72
2021/12/28 11:11:55;;;;;;;41.38;23.23;;;10.00;86.00;;;;;;6123266;23;93094;-70
2021/12/28 11:14:28;;;;;;;17.08;9.05;;;9.90;86.00;;;;;;6095987;23;94868;-71
2021/12/28 11:17:02;;;;;;;14.82;12.07;;;10.00;85.70;;;;;;6125225;23;92407;-71
2021/12/28 11:19:35;;;;;;;13.68;7.93;;;9.90;85.60;;;;;;6124698;23;92380;-76
2021/12/28 11:22:14;;;;;;;13.60;7.13;;;10.00;85.90;;;;;;6124746;23;92388;-76
2021/12/28 11:24:47;;;;;;;13.35;7.55;;;10.00;85.70;;;;;;6124767;23;95288;-76
2021/12/28 11:27:24;;;;;;;14.10;8.10;;;10.00;85.90;;;;;;6148308;22;93125;-77
2021/12/28 11:29:59;;;;;;;9.52;5.28;;;10.00;85.80;;;;;;6098287;23;92556;-76
2021/12/28 11:32:26;;;;;;;17.50;11.43;;;10.00;85.60;;;;;;6125345;23;91591;-77
2021/12/28 11:34:53;;;;;;;13.55;6.30;;;10.00;86.20;;;;;;6124302;23;92305;-76
2021/12/28 11:37:23;;;;;;;11.73;6.80;;;10.10;85.70;;;;;;6122425;23;104471;-77
2021/12/28 11:39:57;;;;;;;11.43;7.40;;;10.10;86.10;;;;;;6123571;23;94786;-77
2021/12/28 11:42:25;;;;;;;10.20;6.47;;;10.10;86.00;;;;;;6124690;23;92975;-76
2021/12/28 11:44:53;;;;;;;11.60;5.47;;;10.00;86.00;;;;;;6124510;23;92850;-71
2021/12/28 11:47:21;;;;;;;11.23;5.82;;;10.10;86.20;;;;;;6124963;23;92526;-71
2021/12/28 11:49:50;;;;;;;8.00;4.78;;;10.00;86.70;;;;;;6124912;23;92526;-71
2021/12/28 11:52:19;;;;;;;9.60;5.72;;;10.00;86.80;;;;;;6124889;23;93081;-71
2021/12/28 11:54:50;;;;;;;10.98;6.43;;;10.00;87.30;;;;;;6098074;23;93840;-71
2021/12/28 11:57:29;;;;;;;10.82;5.57;;;10.00;87.50;;;;;;6098342;23;91644;-71
2021/12/28 11:59:59;;;;;;;10.88;6.32;;;10.00;87.40;;;;;;6123124;23;92594;-71
2021/12/28 12:02:37;;;;;;;12.35;6.40;;;10.00;87.90;;;;;;6124297;23;95736;-71
2021/12/28 12:05:19;;;;;;;12.68;7.25;;;10.00;88.00;;;;;;6123467;23;94860;-71
2021/12/28 12:08:12;;;;;;;14.88;10.00;;;9.90;87.70;;;;;;6124932;23;92405;-71
2021/12/28 12:10:46;;;;;;;16.75;7.30;;;9.90;88.30;;;;;;6124385;23;92397;-71
2021/12/28 12:13:22;;;;;;;15.98;9.02;;;9.80;88.50;;;;;;6147730;22;96538;-71
2021/12/28 12:16:03;;;;;;;15.65;8.02;;;9.70;88.60;;;;;;6124758;23;92774;-71
2021/12/28 12:18:47;;;;;;;13.13;7.28;;;9.70;89.10;;;;;;6125070;23;92430;-71
2021/12/28 12:21:22;;;;;;;15.38;7.65;;;9.70;89.60;;;;;;6121536;23;94151;-71
2021/12/28 12:23:52;;;;;;;12.93;6.22;;;9.70;89.30;;;;;;6098896;23;93263;-71
2021/12/28 12:26:32;;;;;;;12.57;7.07;;;9.80;89.20;;;;;;6122573;23;93350;-71
2021/12/28 12:28:59;;;;;;;12.07;7.03;;;9.80;89.30;;;;;;6148350;22;92382;-71
2021/12/28 12:31:37;;;;;;;11.52;7.38;;;9.80;88.70;;;;;;6097489;23;94993;-71
2021/12/28 12:34:26;;;;;;;10.60;6.57;;;9.80;89.00;;;;;;6124850;23;93060;-76
2021/12/28 12:36:54;;;;;;;7.95;6.22;;;9.80;88.90;;;;;;6073774;23;95556;-77
2021/12/28 12:39:23;;;;;;;10.95;7.05;;;9.80;89.10;;;;;;6098927;23;92394;-77
2021/12/28 12:41:53;;;;;;;11.23;6.82;;;9.90;88.90;;;;;;6148063;22;92399;-78
2021/12/28 12:44:23;;;;;;;11.73;7.20;;;9.80;88.70;;;;;;6124043;23;93062;-77
2021/12/28 12:46:52;;;;;;;10.77;6.43;;;9.80;89.00;;;;;;6124793;23;92788;-77
2021/12/28 12:49:29;;;;;;;9.65;6.80;;;9.80;89.20;;;;;;6125429;23;91684;-77
2021/12/28 12:52:18;;;;;;;10.85;7.63;;;9.90;89.50;;;;;;6098000;23;92376;-77